createdAt,value
2018-11-05T00:02:16.551Z,83.63
2018-11-05T00:05:21.941Z,84.21
2018-11-05T00:08:27.709Z,84.23
2018-11-05T00:11:32.414Z,84.55
2018-11-05T00:14:37.056Z,85.03
2018-11-05T00:17:41.706Z,84.44
2018-11-05T00:20:46.379Z,83.66
2018-11-05T00:23:50.913Z,83.77
2018-11-05T00:26:55.849Z,83.93
2018-11-05T00:30:06.329Z,84.67
2018-11-05T00:33:11.171Z,84.18
2018-11-05T00:36:16.755Z,84.73
2018-11-05T00:39:21.446Z,84.79
2018-11-05T00:42:25.993Z,83.83
2018-11-05T00:48:43.540Z,83.87
2018-11-05T00:51:48.148Z,85.04
2018-11-05T00:54:53.099Z,84.13
2018-11-05T00:57:58.726Z,84.20
2018-11-05T01:01:04.313Z,84.66
2018-11-05T01:04:09.070Z,84.26
2018-11-05T01:07:14.786Z,83.62
2018-11-05T01:10:19.874Z,84.25
2018-11-05T01:13:24.446Z,83.28
2018-11-05T01:16:29.372Z,83.51
2018-11-05T01:19:34.019Z,83.84
2018-11-05T01:22:38.921Z,83.77
2018-11-05T01:25:43.764Z,83.14
2018-11-05T01:28:48.425Z,83.96
2018-11-05T01:31:53.065Z,83.57
2018-11-05T01:34:57.675Z,84.15
2018-11-05T01:38:02.443Z,85.39
2018-11-05T01:41:07.018Z,84.66
2018-11-05T01:44:12.755Z,84.84
2018-11-05T01:47:17.485Z,84.63
2018-11-05T01:50:22.324Z,83.98
2018-11-05T01:53:27.063Z,84.73
2018-11-05T01:56:32.939Z,84.72
2018-11-05T01:59:37.472Z,84.66
2018-11-05T02:02:42.170Z,84.26
2018-11-05T02:05:46.865Z,84.89
2018-11-05T02:08:51.523Z,84.92
2018-11-05T02:11:56.280Z,85.01
2018-11-05T02:15:00.934Z,84.51
2018-11-05T02:18:05.830Z,85.24
2018-11-05T02:21:10.409Z,85.04
2018-11-05T02:24:15.051Z,85.80
2018-11-05T02:27:19.840Z,85.05
2018-11-05T02:30:24.404Z,84.80
2018-11-05T02:33:29.073Z,84.58
2018-11-05T02:36:33.639Z,85.57
2018-11-05T02:39:38.202Z,85.43
2018-11-05T02:42:43.423Z,86.24
2018-11-05T02:45:47.908Z,85.58
2018-11-05T02:48:52.429Z,85.88
2018-11-05T02:51:57.044Z,85.68
2018-11-05T02:55:01.729Z,85.44
2018-11-05T02:58:06.444Z,85.70
2018-11-05T03:01:11.083Z,85.65
2018-11-05T03:04:15.710Z,86.47
2018-11-05T03:07:20.381Z,85.05
2018-11-05T03:10:25.131Z,85.41
2018-11-05T03:13:29.677Z,86.26
2018-11-05T03:16:34.260Z,86.02
2018-11-05T03:19:38.831Z,85.85
2018-11-05T03:22:43.991Z,85.48
2018-11-05T03:25:48.543Z,86.00
2018-11-05T03:28:53.111Z,86.02
2018-11-05T03:31:57.632Z,86.69
2018-11-05T03:35:02.270Z,84.96
2018-11-05T03:38:06.896Z,85.92
2018-11-05T03:41:11.779Z,85.52
2018-11-05T03:44:16.499Z,85.33
2018-11-05T03:47:21.155Z,85.46
2018-11-05T03:50:25.754Z,83.94
2018-11-05T03:53:30.306Z,85.51
2018-11-05T03:56:35.062Z,84.48
2018-11-05T03:59:39.689Z,84.67
2018-11-05T04:02:44.302Z,85.49
2018-11-05T04:05:48.957Z,85.56
2018-11-05T04:08:53.625Z,85.43
2018-11-05T04:11:58.286Z,85.44
2018-11-05T04:15:02.880Z,85.03
2018-11-05T04:18:07.519Z,84.67
2018-11-05T04:21:12.389Z,85.20
2018-11-05T04:24:16.997Z,85.10
2018-11-05T04:27:22.795Z,85.12
2018-11-05T04:30:27.475Z,84.67
2018-11-05T04:33:32.305Z,83.42
2018-11-05T04:36:37.038Z,84.25
2018-11-05T04:39:41.575Z,84.75
2018-11-05T04:42:46.233Z,84.47
2018-11-05T04:45:50.781Z,84.07
2018-11-05T04:48:55.281Z,83.77
2018-11-05T04:51:59.878Z,83.51
2018-11-05T04:55:04.779Z,83.53
2018-11-05T04:58:09.464Z,84.34
2018-11-05T05:01:13.990Z,83.70
2018-11-05T05:04:18.920Z,83.90
2018-11-05T05:07:23.541Z,83.61
2018-11-05T05:10:28.074Z,83.16
2018-11-05T05:13:32.703Z,82.88
2018-11-05T05:16:37.893Z,82.52
2018-11-05T05:19:42.597Z,82.94
2018-11-05T05:22:47.376Z,82.52
2018-11-05T05:25:51.807Z,83.36
2018-11-05T05:28:56.492Z,83.63
2018-11-05T05:32:01.098Z,84.74
2018-11-05T05:35:06.143Z,84.17
2018-11-05T05:38:10.776Z,84.31
2018-11-05T05:41:15.425Z,83.29
2018-11-05T05:44:20.064Z,83.44
2018-11-05T05:47:26.194Z,84.22
2018-11-05T05:50:31.380Z,83.98
2018-11-05T05:53:35.971Z,84.08
2018-11-05T05:56:40.690Z,84.29
2018-11-05T05:59:45.502Z,83.95
2018-11-05T06:02:50.112Z,84.53
2018-11-05T06:05:54.764Z,83.49
2018-11-05T06:08:59.379Z,84.84
2018-11-05T06:12:04.019Z,84.42
2018-11-05T06:15:11.926Z,83.59
2018-11-05T06:18:16.496Z,83.57
2018-11-05T06:21:21.014Z,83.73
2018-11-05T06:24:25.592Z,84.70
2018-11-05T06:27:30.185Z,84.50
2018-11-05T06:30:34.683Z,84.48
2018-11-05T06:33:39.157Z,84.49
2018-11-05T06:36:43.717Z,83.62
2018-11-05T06:39:48.241Z,84.10
2018-11-05T06:42:52.880Z,83.61
2018-11-05T06:45:57.488Z,83.12
2018-11-05T06:49:02.079Z,83.37
2018-11-05T06:52:07.069Z,83.76
2018-11-05T06:55:12.342Z,83.05
2018-11-05T06:58:17.030Z,83.46
2018-11-05T07:01:21.640Z,83.80
2018-11-05T07:04:26.206Z,83.58
2018-11-05T07:07:30.742Z,83.35
2018-11-05T07:10:35.323Z,83.18
2018-11-05T07:13:39.894Z,83.13
2018-11-05T07:16:44.441Z,82.66
2018-11-05T07:19:49.058Z,82.08
2018-11-05T07:22:53.539Z,81.58
2018-11-05T07:25:58.186Z,81.86
2018-11-05T07:29:02.742Z,81.82
2018-11-05T07:32:07.318Z,82.91
2018-11-05T07:35:13.174Z,82.83
2018-11-05T07:38:17.883Z,82.54
2018-11-05T07:41:22.592Z,82.67
2018-11-05T07:44:27.087Z,81.18
2018-11-05T07:47:31.732Z,81.24
2018-11-05T07:50:36.287Z,81.87
2018-11-05T07:53:40.778Z,81.12
2018-11-05T07:56:45.466Z,80.96
2018-11-05T07:59:50.048Z,81.82
2018-11-05T08:02:55.975Z,82.19
2018-11-05T08:06:00.427Z,81.98
2018-11-05T08:09:07.377Z,81.81
2018-11-05T08:12:11.967Z,81.70
2018-11-05T08:15:18.094Z,80.68
2018-11-05T08:18:22.635Z,82.15
2018-11-05T08:21:27.235Z,81.65
2018-11-05T08:24:31.862Z,81.01
2018-11-05T08:27:36.694Z,80.81
2018-11-05T08:30:41.363Z,81.06
2018-11-05T08:33:45.861Z,80.85
2018-11-05T08:36:50.494Z,80.77
2018-11-05T08:39:55.079Z,80.45
2018-11-05T08:42:59.664Z,80.56
2018-11-05T08:46:04.320Z,79.19
2018-11-05T08:49:08.969Z,79.34
2018-11-05T08:52:13.589Z,80.02
2018-11-05T08:55:19.542Z,78.65
2018-11-05T08:58:24.154Z,80.14
2018-11-05T09:01:33.233Z,79.60
2018-11-05T09:04:37.921Z,79.64
2018-11-05T09:07:42.687Z,78.50
2018-11-05T09:10:47.597Z,78.92
2018-11-05T09:13:51.919Z,79.41
2018-11-05T09:16:56.531Z,79.04
2018-11-05T09:20:01.169Z,79.06
2018-11-05T09:23:06.415Z,78.52
2018-11-05T09:26:11.183Z,79.09
2018-11-05T09:29:15.828Z,77.85
2018-11-05T09:32:20.413Z,78.76
2018-11-05T09:35:25.021Z,78.79
2018-11-05T09:38:29.573Z,78.42
2018-11-05T09:41:34.188Z,78.79
2018-11-05T09:44:38.699Z,77.18
2018-11-05T09:47:44.022Z,77.38
2018-11-05T09:50:49.060Z,78.14
2018-11-05T09:53:53.373Z,76.55
2018-11-05T09:56:57.937Z,76.74
2018-11-05T10:00:02.622Z,77.02
2018-11-05T10:03:16.471Z,76.32
2018-11-05T10:06:20.836Z,74.45
2018-11-05T10:09:25.522Z,74.92
2018-11-05T10:12:30.076Z,73.91
2018-11-05T10:15:34.669Z,74.61
2018-11-05T10:18:39.282Z,74.75
2018-11-05T10:21:43.875Z,73.87
2018-11-05T10:24:48.627Z,72.26
2018-11-05T10:27:53.482Z,74.11
2018-11-05T10:30:58.070Z,73.02
2018-11-05T10:34:02.640Z,73.45
2018-11-05T10:37:07.731Z,72.58
2018-11-05T10:40:17.117Z,71.48
2018-11-05T10:43:21.817Z,72.03
2018-11-05T10:46:26.444Z,71.79
2018-11-05T10:49:31.042Z,71.03
2018-11-05T10:52:35.821Z,70.86
2018-11-05T10:55:40.479Z,71.30
2018-11-05T10:58:45.001Z,70.13
2018-11-05T11:01:54.804Z,69.49
2018-11-05T11:04:59.350Z,68.71
2018-11-05T11:08:04.047Z,69.43
2018-11-05T11:11:08.593Z,70.27
2018-11-05T11:14:13.372Z,69.79
2018-11-05T11:17:17.947Z,70.37
2018-11-05T11:20:22.585Z,70.54
2018-11-05T11:23:27.173Z,70.67
2018-11-05T11:26:31.651Z,69.75
2018-11-05T11:29:36.138Z,70.33
2018-11-05T11:32:41.485Z,69.81
2018-11-05T11:35:46.100Z,69.42
2018-11-05T11:38:50.655Z,69.40
2018-11-05T11:41:55.382Z,69.57
2018-11-05T11:45:00.197Z,69.48
2018-11-05T11:48:04.686Z,68.85
2018-11-05T11:51:09.431Z,70.33
2018-11-05T11:54:14.091Z,68.24
2018-11-05T11:57:18.657Z,69.20
2018-11-05T12:00:25.501Z,68.49
2018-11-05T12:03:30.179Z,68.89
2018-11-05T12:06:34.881Z,68.14
2018-11-05T12:09:39.589Z,68.76
2018-11-05T12:12:44.781Z,69.40
2018-11-05T12:15:49.383Z,69.45
2018-11-05T12:18:54.265Z,68.71
2018-11-05T12:21:58.900Z,69.49
2018-11-05T12:25:03.621Z,69.64
2018-11-05T12:28:08.183Z,69.34
2018-11-05T12:31:12.931Z,68.15
2018-11-05T12:34:17.592Z,69.95
2018-11-05T12:37:22.139Z,69.61
2018-11-05T12:40:26.756Z,69.10
2018-11-05T12:43:31.365Z,68.17
2018-11-05T12:46:35.921Z,67.31
2018-11-05T12:49:40.614Z,66.71
2018-11-05T12:52:46.216Z,66.63
2018-11-05T12:55:50.839Z,66.25
2018-11-05T12:58:55.479Z,66.93
2018-11-05T13:02:00.324Z,65.68
2018-11-05T13:05:05.448Z,65.72
2018-11-05T13:08:10.107Z,66.19
2018-11-05T13:11:14.753Z,65.91
2018-11-05T13:14:20.236Z,66.69
2018-11-05T13:17:24.842Z,66.29
2018-11-05T13:20:31.311Z,65.79
2018-11-05T13:23:38.738Z,64.01
2018-11-05T13:26:43.503Z,64.83
2018-11-05T13:29:48.183Z,65.01
2018-11-05T13:32:52.747Z,65.86
2018-11-05T13:35:57.386Z,64.68
2018-11-05T13:39:02.070Z,65.30
2018-11-05T13:42:06.886Z,65.03
2018-11-05T13:45:12.990Z,66.03
2018-11-05T13:48:17.927Z,68.06
2018-11-05T13:51:22.313Z,70.25
2018-11-05T13:54:26.976Z,70.82
2018-11-05T13:57:31.536Z,71.20
2018-11-05T14:00:36.207Z,71.22
2018-11-05T14:03:40.814Z,72.92
2018-11-05T14:06:45.396Z,72.03
2018-11-05T14:09:50.390Z,72.01
2018-11-05T14:12:55.186Z,70.93
2018-11-05T14:15:59.687Z,70.07
2018-11-05T14:19:04.450Z,70.17
2018-11-05T14:22:09.148Z,69.66
2018-11-05T14:25:15.163Z,70.10
2018-11-05T14:28:20.312Z,71.13
2018-11-05T14:31:24.543Z,71.83
2018-11-05T14:34:29.337Z,71.90
2018-11-05T14:37:33.976Z,72.88
2018-11-05T14:40:38.752Z,72.91
2018-11-05T14:43:43.443Z,74.89
2018-11-05T14:46:47.999Z,76.05
2018-11-05T14:49:52.651Z,77.60
2018-11-05T14:52:57.265Z,78.02
2018-11-05T14:56:01.874Z,78.69
2018-11-05T14:59:07.254Z,78.46
2018-11-05T15:02:17.009Z,78.45
2018-11-05T15:05:21.684Z,79.22
2018-11-05T15:08:26.368Z,79.44
2018-11-05T15:11:31.074Z,80.28
2018-11-05T15:14:35.848Z,81.70
2018-11-05T15:17:41.478Z,82.12
2018-11-05T15:20:46.279Z,81.97
2018-11-05T15:23:51.086Z,82.45
2018-11-05T15:26:55.873Z,83.04
2018-11-05T15:30:00.585Z,83.86
2018-11-05T15:33:05.254Z,84.65
2018-11-05T15:36:09.874Z,84.84
2018-11-05T15:39:14.479Z,85.16
2018-11-05T15:42:19.139Z,86.56
2018-11-05T15:45:23.984Z,86.44
2018-11-05T15:48:28.797Z,87.25
2018-11-05T15:51:33.556Z,87.96
2018-11-05T15:54:38.262Z,88.43
2018-11-05T15:57:43.085Z,89.10
2018-11-05T16:00:47.826Z,88.34
2018-11-05T16:03:52.558Z,88.21
2018-11-05T16:07:20.871Z,89.01
2018-11-05T16:10:25.968Z,89.74
2018-11-05T16:13:30.600Z,90.04
2018-11-05T16:16:35.577Z,89.96
2018-11-05T16:19:40.266Z,90.51
2018-11-05T16:22:45.362Z,91.21
2018-11-05T16:25:50.099Z,91.03
2018-11-05T16:28:54.823Z,91.92
2018-11-05T16:31:59.725Z,92.76
2018-11-05T16:35:04.747Z,92.76
2018-11-05T16:38:09.492Z,92.86
2018-11-05T16:41:14.120Z,92.70
2018-11-05T16:44:18.906Z,93.43
2018-11-05T16:47:23.616Z,93.56
2018-11-05T16:50:29.095Z,93.94
2018-11-05T16:53:34.647Z,94.26
2018-11-05T16:56:40.016Z,95.00
2018-11-05T16:59:44.848Z,94.04
2018-11-05T17:02:50.423Z,93.89
2018-11-05T17:05:54.732Z,94.75
2018-11-05T17:08:59.326Z,94.22
2018-11-05T17:12:04.383Z,94.42
2018-11-05T17:15:11.510Z,94.44
2018-11-05T17:18:16.079Z,94.93
2018-11-05T17:21:20.641Z,94.08
2018-11-05T17:24:25.475Z,94.76
2018-11-05T17:27:30.038Z,94.13
2018-11-05T17:30:34.744Z,94.30
2018-11-05T17:33:39.479Z,93.76
2018-11-05T17:36:44.041Z,94.00
2018-11-05T17:39:48.687Z,94.28
2018-11-05T17:42:53.426Z,94.95
2018-11-05T17:45:58.087Z,93.96
2018-11-05T17:49:02.928Z,94.55
2018-11-05T17:52:07.522Z,94.05
2018-11-05T17:55:12.774Z,94.40
2018-11-05T17:58:17.461Z,94.28
2018-11-05T18:01:22.131Z,94.44
2018-11-05T18:04:26.845Z,94.58
2018-11-05T18:07:31.493Z,95.23
2018-11-05T18:10:36.361Z,95.16
2018-11-05T18:13:41.339Z,94.50
2018-11-05T18:16:45.993Z,94.77
2018-11-05T18:19:50.715Z,95.58
2018-11-05T18:22:55.493Z,94.91
2018-11-05T18:26:00.174Z,95.03
2018-11-05T18:29:04.922Z,95.60
2018-11-05T18:32:13.597Z,95.91
2018-11-05T18:35:18.330Z,96.89
2018-11-05T18:38:22.910Z,97.52
2018-11-05T18:41:27.643Z,97.29
2018-11-05T18:44:32.230Z,97.21
2018-11-05T18:47:37.035Z,97.19
2018-11-05T18:50:41.868Z,97.60
2018-11-05T18:53:46.495Z,96.90
2018-11-05T18:56:51.257Z,97.15
2018-11-05T18:59:56.775Z,97.99
2018-11-05T19:03:01.440Z,98.62
2018-11-05T19:06:06.235Z,98.66
2018-11-05T19:09:10.845Z,98.51
2018-11-05T19:12:15.628Z,99.14
2018-11-05T19:15:20.546Z,99.13
2018-11-05T19:18:25.199Z,99.17
2018-11-05T19:21:29.811Z,99.89
2018-11-05T19:24:35.069Z,99.16
2018-11-05T19:27:40.016Z,99.05
2018-11-05T19:30:44.898Z,99.66
2018-11-05T19:33:49.507Z,99.15
2018-11-05T19:36:54.155Z,99.79
2018-11-05T19:39:58.891Z,100.00
2018-11-05T19:43:03.725Z,99.86
2018-11-05T19:46:08.459Z,99.44
2018-11-05T19:49:13.384Z,100.00
2018-11-05T19:52:18.030Z,99.56
2018-11-05T19:55:22.910Z,100.00
2018-11-05T19:58:27.657Z,99.96
2018-11-05T20:01:32.305Z,99.48
2018-11-05T20:04:37.108Z,100.00
2018-11-05T20:07:41.618Z,99.67
2018-11-05T20:10:46.473Z,100.00
2018-11-05T20:13:51.092Z,100.00
2018-11-05T20:16:56.218Z,99.95
2018-11-05T20:20:01.575Z,100.00
2018-11-05T20:23:06.818Z,100.00
2018-11-05T20:26:11.402Z,100.00
2018-11-05T20:29:15.964Z,100.00
2018-11-05T20:32:20.920Z,100.00
2018-11-05T20:35:25.330Z,100.00
2018-11-05T20:38:30.150Z,100.00
2018-11-05T20:41:34.845Z,100.00
2018-11-05T20:44:39.488Z,100.00
2018-11-05T20:47:44.680Z,100.00
2018-11-05T20:50:49.312Z,100.00
2018-11-05T20:53:54.184Z,100.00
2018-11-05T20:56:58.712Z,100.00
2018-11-05T21:00:03.533Z,100.00
2018-11-05T21:03:08.185Z,100.00
2018-11-05T21:06:12.856Z,100.00
2018-11-05T21:09:17.902Z,100.00
2018-11-05T21:12:22.534Z,100.00
2018-11-05T21:15:27.328Z,100.00
2018-11-05T21:18:31.967Z,100.00
2018-11-05T21:21:36.635Z,100.00
2018-11-05T21:24:41.257Z,100.00
2018-11-05T21:27:46.200Z,100.00
2018-11-05T21:30:50.799Z,100.00
2018-11-05T21:37:00.720Z,100.00
2018-11-05T21:40:06.083Z,100.00
2018-11-05T21:43:10.670Z,100.00
2018-11-05T21:46:15.272Z,100.00
2018-11-05T21:49:19.833Z,100.00
2018-11-05T21:52:24.403Z,100.00
2018-11-05T21:55:29.018Z,100.00
2018-11-05T21:58:33.514Z,100.00
2018-11-05T22:01:38.179Z,100.00
2018-11-05T22:04:43.029Z,100.00
2018-11-05T22:07:48.299Z,100.00
2018-11-05T22:10:52.952Z,100.00
2018-11-05T22:13:57.545Z,100.00
2018-11-05T22:17:02.023Z,100.00
2018-11-05T22:20:08.199Z,100.00
2018-11-05T22:23:12.806Z,100.00
2018-11-05T22:26:17.373Z,100.00
2018-11-05T22:29:21.956Z,100.00
2018-11-05T22:32:26.658Z,100.00
2018-11-05T22:35:31.271Z,100.00
2018-11-05T22:38:35.863Z,100.00
2018-11-05T22:41:40.391Z,100.00
2018-11-05T22:44:45.002Z,100.00
2018-11-05T22:47:50.024Z,100.00
2018-11-05T22:50:55.200Z,100.00
2018-11-05T22:53:59.846Z,100.00
2018-11-05T22:57:04.460Z,100.00
2018-11-05T23:00:18.901Z,100.00
2018-11-05T23:03:27.430Z,100.00
2018-11-05T23:06:33.379Z,100.00
2018-11-05T23:09:37.868Z,100.00
2018-11-05T23:12:42.467Z,100.00
2018-11-05T23:15:47.145Z,100.00
2018-11-05T23:18:51.680Z,100.00
2018-11-05T23:21:56.348Z,100.00
2018-11-05T23:25:01.114Z,100.00
2018-11-05T23:28:06.086Z,100.00
2018-11-05T23:31:10.903Z,100.00
2018-11-05T23:34:15.523Z,100.00
2018-11-05T23:37:20.234Z,100.00
2018-11-05T23:40:24.895Z,100.00
2018-11-05T23:43:29.633Z,100.00
2018-11-05T23:46:34.264Z,100.00
2018-11-05T23:49:39.232Z,100.00
2018-11-05T23:52:43.801Z,100.00
2018-11-05T23:55:48.735Z,100.00
2018-11-05T23:58:54.309Z,100.00
